Time;durP1;ratioP1;P1;durP2;ratioP2;P2;SDS_P1;SDS_P2;PMS_P1;PMS_P2;Temp;Humidity;BMP_temperature;BMP_pressure;BME280_temperature;BME280_humidity;BME280_pressure;Samples;Min_cycle;Max_cycle;Signal;HPM_P1;HPM_P2
2024/01/27 05:22:32;;;;;;;4.00;2.70;;;;;;;-1.87;100.00;102369.97;5083454;28;20344;-32
2024/01/27 05:24:58;;;;;;;4.75;2.97;;;;;;;-1.84;100.00;102368.47;5089126;28;20037;-38
2024/01/27 05:27:23;;;;;;;2.75;2.45;;;;;;;-1.92;100.00;102367.53;5088722;28;20036;-31
2024/01/27 05:29:49;;;;;;;5.97;3.13;;;;;;;-2.00;100.00;102372.06;5079752;28;20047;-32
2024/01/27 05:32:15;;;;;;;4.05;3.10;;;;;;;-1.93;100.00;102377.66;5068793;28;20499;-31
2024/01/27 05:34:40;;;;;;;5.70;3.13;;;;;;;-1.97;100.00;102373.28;5068636;28;20098;-34
2024/01/27 05:37:05;;;;;;;8.73;3.50;;;;;;;-2.02;100.00;102368.91;5068511;28;20056;-32
2024/01/27 05:39:32;;;;;;;5.28;3.25;;;;;;;-2.12;100.00;102364.00;5068519;28;20047;-31
2024/01/27 05:41:57;;;;;;;5.90;2.80;;;;;;;-1.93;100.00;102361.25;5068900;28;20033;-34
2024/01/27 05:44:23;;;;;;;4.57;2.90;;;;;;;-1.88;100.00;102363.72;5068837;28;20043;-33
2024/01/27 05:46:48;;;;;;;5.88;3.25;;;;;;;-1.94;100.00;102367.88;5068511;28;20028;-33
2024/01/27 05:49:14;;;;;;;5.88;3.20;;;;;;;-1.96;100.00;102372.13;5068392;28;20045;-32
2024/01/27 05:51:39;;;;;;;5.03;3.13;;;;;;;-1.96;100.00;102367.47;5068540;28;20068;-31
2024/01/27 05:54:05;;;;;;;4.80;2.90;;;;;;;-1.97;100.00;102376.81;5068247;28;20464;-32
2024/01/27 05:56:30;;;;;;;4.25;3.03;;;;;;;-1.87;100.00;102387.16;5068151;28;20493;-35
2024/01/27 05:58:55;;;;;;;3.17;2.75;;;;;;;-1.90;100.00;102382.41;5067968;28;20087;-32
2024/01/27 06:01:21;;;;;;;3.22;2.55;;;;;;;-1.94;100.00;102395.25;5068156;28;20492;-36
2024/01/27 06:03:46;;;;;;;3.65;3.03;;;;;;;-2.05;100.00;102390.72;5068159;28;20119;-37
2024/01/27 06:06:12;;;;;;;4.68;2.80;;;;;;;-2.10;100.00;102383.59;5067982;28;20101;-31
2024/01/27 06:08:38;;;;;;;4.15;3.05;;;;;;;-1.93;100.00;102380.41;5067763;28;20441;-31
2024/01/27 06:11:03;;;;;;;3.67;2.53;;;;;;;-1.86;100.00;102377.03;5067930;28;20510;-31
2024/01/27 06:13:29;;;;;;;4.00;2.55;;;;;;;-2.11;100.00;102384.75;5067805;28;20037;-34
2024/01/27 06:15:54;;;;;;;4.45;2.60;;;;;;;-1.98;100.00;102396.34;5067895;28;20408;-31
2024/01/27 06:18:19;;;;;;;5.22;2.90;;;;;;;-2.06;100.00;102395.38;5067630;28;20100;-32
2024/01/27 06:20:46;;;;;;;5.43;3.15;;;;;;;-2.09;100.00;102395.31;5066108;28;20036;-33
2024/01/27 06:23:11;;;;;;;5.60;3.20;;;;;;;-1.99;100.00;102395.56;5067680;28;20037;-31
2024/01/27 06:25:36;;;;;;;5.35;3.95;;;;;;;-2.09;100.00;102387.13;5067490;28;20033;-39
2024/01/27 06:28:02;;;;;;;5.30;3.03;;;;;;;-1.98;100.00;102391.66;5067293;28;20040;-31
2024/01/27 06:30:27;;;;;;;3.08;2.70;;;;;;;-2.09;100.00;102398.06;5067361;28;20039;-32
2024/01/27 06:32:53;;;;;;;4.50;3.03;;;;;;;-2.21;100.00;102388.06;5059748;28;20123;-35
2024/01/27 06:35:18;;;;;;;6.43;2.85;;;;;;;-2.18;100.00;102401.03;5054259;28;20119;-31
2024/01/27 06:37:44;;;;;;;4.68;3.15;;;;;;;-2.11;100.00;102406.63;5053898;28;20033;-31
2024/01/27 06:40:09;;;;;;;6.00;2.78;;;;;;;-2.01;100.00;102403.31;5053864;28;20037;-37
2024/01/27 06:42:35;;;;;;;4.05;2.90;;;;;;;-2.06;100.00;102400.84;5053937;28;20037;-36
2024/01/27 06:45:00;;;;;;;5.25;2.67;;;;;;;-2.10;100.00;102389.06;5054024;28;20035;-31
2024/01/27 06:47:26;;;;;;;4.25;2.53;;;;;;;-2.02;100.00;102399.00;5053740;28;20067;-30
2024/01/27 06:49:51;;;;;;;7.55;3.45;;;;;;;-1.85;100.00;102405.19;5053759;28;20036;-32
2024/01/27 06:52:17;;;;;;;4.22;2.63;;;;;;;-1.87;100.00;102402.81;5053851;28;20087;-32
2024/01/27 06:54:44;;;;;;;4.05;3.28;;;;;;;-1.74;100.00;102395.22;5053541;28;20521;-32
2024/01/27 06:57:19;;;;;;;4.03;2.97;;;;;;;-1.88;100.00;102393.81;5052734;28;20060;-36
2024/01/27 06:59:52;;;;;;;4.30;3.08;;;;;;;-1.92;100.00;102387.47;5052033;28;20033;-31
2024/01/27 07:02:21;;;;;;;4.90;2.92;;;;;;;-2.08;100.00;102385.97;5053299;28;20439;-33
2024/01/27 07:04:47;;;;;;;7.28;3.10;;;;;;;-1.99;100.00;102387.34;5053505;28;20025;-33
2024/01/27 07:07:12;;;;;;;5.22;3.55;;;;;;;-2.02;100.00;102390.00;5053331;28;20410;-32
2024/01/27 07:09:38;;;;;;;8.20;3.25;;;;;;;-1.97;100.00;102398.69;5053298;28;20045;-32
2024/01/27 07:12:03;;;;;;;8.45;3.30;;;;;;;-1.92;100.00;102406.63;5053622;28;20036;-31
2024/01/27 07:14:29;;;;;;;4.50;2.90;;;;;;;-1.85;100.00;102394.25;5053562;28;20052;-31
2024/01/27 07:16:54;;;;;;;4.80;3.63;;;;;;;-1.89;100.00;102399.66;5053336;28;20154;-32
2024/01/27 07:19:19;;;;;;;5.57;3.50;;;;;;;-1.78;100.00;102392.44;5053536;28;20033;-36
2024/01/27 07:21:45;;;;;;;5.38;2.95;;;;;;;-1.76;100.00;102398.34;5053246;28;20450;-35
2024/01/27 07:24:10;;;;;;;7.72;3.50;;;;;;;-1.79;100.00;102399.06;5053553;28;20548;-35
2024/01/27 07:26:35;;;;;;;9.20;3.60;;;;;;;-1.76;100.00;102400.28;5051981;28;20041;-38
2024/01/27 07:29:01;;;;;;;7.40;3.28;;;;;;;-1.42;100.00;102406.75;5053118;28;20033;-33
2024/01/27 07:31:27;;;;;;;3.85;3.05;;;;;;;-1.38;100.00;102401.34;5053223;28;20040;-35
2024/01/27 07:33:52;;;;;;;3.30;2.33;;;;;;;10.67;100.00;102429.88;5052085;28;20184;-31
2024/01/27 07:36:18;;;;;;;3.55;2.70;;;;;;;12.48;100.00;102412.69;5053002;28;20045;-30
2024/01/27 07:38:43;;;;;;;4.30;3.20;;;;;;;13.14;91.41;102412.41;5052992;28;20045;-31
2024/01/27 07:41:08;;;;;;;7.15;3.20;;;;;;;-147.11;100.00;72537.44;5053439;28;20041;-30
2024/01/27 07:43:34;;;;;;;6.55;2.38;;;;;;;-147.11;100.00;72537.44;5052633;28;20044;-32
2024/01/27 07:45:59;;;;;;;3.22;2.20;;;;;;;-147.11;100.00;72537.44;5052631;28;20400;-40
2024/01/27 07:48:25;;;;;;;3.45;2.55;;;;;;;5.88;71.01;102403.34;5052646;28;20045;-32
2024/01/27 07:50:50;;;;;;;4.97;2.60;;;;;;;5.85;69.75;102416.03;5052955;28;20100;-36
2024/01/27 07:53:17;;;;;;;3.53;2.38;;;;;;;5.54;76.85;102418.75;5052616;28;20040;-33
2024/01/27 07:55:42;;;;;;;4.40;3.05;;;;;;;4.29;84.34;102410.66;5052645;28;20045;-37
2024/01/27 07:58:07;;;;;;;9.93;5.05;;;;;;;5.38;73.41;102407.44;5052507;28;20056;-33
2024/01/27 08:00:33;;;;;;;3.83;3.08;;;;;;;6.94;68.23;102406.59;5052540;28;20044;-33
2024/01/27 08:02:58;;;;;;;6.85;3.63;;;;;;;5.98;72.25;102417.09;5052653;28;20402;-34
2024/01/27 08:05:24;;;;;;;7.13;3.70;;;;;;;6.37;68.51;102407.47;5052553;28;20051;-33
2024/01/27 08:07:49;;;;;;;5.57;3.17;;;;;;;4.61;80.03;102396.66;5052200;28;20037;-33
2024/01/27 08:10:15;;;;;;;6.85;4.78;;;;;;;4.98;79.56;102407.03;5052437;28;20049;-35
2024/01/27 08:12:40;;;;;;;11.32;7.78;;;;;;;6.08;71.34;102396.00;5052442;28;20041;-34
2024/01/27 08:15:06;;;;;;;6.72;4.07;;;;;;;8.83;62.29;102390.84;5052480;28;20056;-33
2024/01/27 08:17:32;;;;;;;5.03;3.80;;;;;;;6.76;65.22;102390.22;5052155;28;20436;-35
2024/01/27 08:19:57;;;;;;;9.73;8.68;;;;;;;6.20;71.38;102405.75;5052188;28;20060;-34
2024/01/27 08:22:22;;;;;;;10.57;6.75;;;;;;;8.30;66.53;102415.09;5051874;28;20052;-41
2024/01/27 08:24:48;;;;;;;6.80;5.13;;;;;;;9.84;58.88;102402.88;5052081;28;20035;-35
2024/01/27 08:27:13;;;;;;;5.95;4.07;;;;;;;9.44;57.38;102405.19;5051820;28;20448;-33
2024/01/27 08:29:39;;;;;;;7.10;4.35;;;;;;;10.60;54.27;102391.03;5051995;28;20043;-35
2024/01/27 08:32:04;;;;;;;6.38;3.67;;;;;;;9.57;55.95;102392.88;5052017;28;20599;-33
2024/01/27 08:34:30;;;;;;;4.88;4.00;;;;;;;11.58;52.96;102400.47;5052060;28;20040;-33
2024/01/27 08:37:01;;;;;;;4.03;3.63;;;;;;;12.30;49.30;102398.63;5051653;28;20037;-37
2024/01/27 08:39:27;;;;;;;4.40;3.60;;;;;;;10.95;52.68;102402.28;5051858;28;20041;-36
2024/01/27 08:41:52;;;;;;;5.00;3.72;;;;;;;11.21;56.91;102421.75;5052122;28;20047;-33
2024/01/27 08:44:17;;;;;;;4.65;3.58;;;;;;;9.00;59.17;102413.09;5052023;28;20044;-34
2024/01/27 08:46:43;;;;;;;5.10;3.88;;;;;;;8.43;62.91;102417.22;5051652;28;20040;-40
2024/01/27 08:49:09;;;;;;;8.00;4.13;;;;;;;8.84;63.12;102420.22;5047269;28;20454;-32
2024/01/27 08:51:35;;;;;;;5.60;4.43;;;;;;;8.08;64.85;102425.09;5051615;28;20048;-33
2024/01/27 08:54:00;;;;;;;5.60;3.47;;;;;;;8.13;65.76;102422.59;5051637;28;20037;-34
2024/01/27 08:56:26;;;;;;;5.97;3.53;;;;;;;10.30;60.21;102430.66;5051345;28;20155;-32
2024/01/27 08:58:52;;;;;;;4.55;2.88;;;;;;;11.82;55.66;102423.97;5051483;28;20116;-35
2024/01/27 09:01:18;;;;;;;4.32;2.67;;;;;;;12.32;55.92;102421.31;5051575;28;20150;-33
2024/01/27 09:03:43;;;;;;;3.50;2.38;;;;;;;10.43;57.04;102428.63;5051572;28;20502;-35
2024/01/27 09:06:09;;;;;;;3.50;2.70;;;;;;;11.08;57.55;102425.38;5051415;28;20079;-33
2024/01/27 09:08:34;;;;;;;3.88;2.55;;;;;;;11.05;57.34;102428.28;5051635;28;20051;-34
2024/01/27 09:11:01;;;;;;;2.63;2.20;;;;;;;10.03;60.25;102431.81;5051387;28;20037;-35
2024/01/27 09:13:27;;;;;;;4.85;2.58;;;;;;;8.73;63.69;102425.28;5051503;28;20048;-35
2024/01/27 09:15:52;;;;;;;3.80;2.40;;;;;;;10.53;60.36;102427.56;5051563;28;20041;-33
2024/01/27 09:18:17;;;;;;;3.38;2.20;;;;;;;10.42;60.97;102436.22;5051315;28;20024;-37
2024/01/27 09:20:43;;;;;;;3.80;2.13;;;;;;;10.82;56.60;102424.63;5051162;28;20488;-35
2024/01/27 09:23:08;;;;;;;3.95;2.00;;;;;;;10.37;56.70;102422.03;5051419;28;20429;-33
2024/01/27 09:25:33;;;;;;;1.95;1.60;;;;;;;8.88;62.53;102427.69;5051334;28;20128;-35
2024/01/27 09:28:01;;;;;;;3.17;2.08;;;;;;;8.96;62.48;102431.91;5051208;28;20033;-34
2024/01/27 09:30:26;;;;;;;3.17;1.67;;;;;;;11.56;56.46;102428.91;5049917;28;20044;-34
2024/01/27 09:32:52;;;;;;;2.28;1.80;;;;;;;10.23;59.16;102426.81;5051420;28;20025;-33
2024/01/27 09:35:17;;;;;;;4.13;2.33;;;;;;;9.68;60.59;102428.78;5051191;28;20489;-33
2024/01/27 09:37:44;;;;;;;3.20;2.28;;;;;;;9.39;62.63;102430.78;5050915;28;20037;-34
2024/01/27 09:40:10;;;;;;;3.63;2.10;;;;;;;10.24;61.47;102431.19;5051259;28;20107;-37
2024/01/27 09:42:39;;;;;;;4.70;2.47;;;;;;;10.94;58.94;102423.81;5051255;28;20897;-35
2024/01/27 09:45:05;;;;;;;3.38;2.10;;;;;;;10.11;59.83;102433.16;5049973;28;20455;-37
2024/01/27 09:47:30;;;;;;;3.70;2.30;;;;;;;8.29;66.18;102423.88;5050944;28;20119;-36
2024/01/27 09:49:56;;;;;;;4.28;2.40;;;;;;;8.80;66.54;102430.66;5051113;28;20040;-38
2024/01/27 09:52:22;;;;;;;3.30;1.90;;;;;;;10.73;62.58;102430.88;5050942;28;20045;-38
2024/01/27 09:54:47;;;;;;;2.92;2.25;;;;;;;9.19;63.06;102422.56;5051086;28;20040;-34
2024/01/27 09:57:14;;;;;;;3.95;2.60;;;;;;;9.20;66.58;102424.13;5050923;28;20112;-34
2024/01/27 09:59:44;;;;;;;4.43;3.03;;;;;;;9.20;66.69;102418.56;5049646;28;20037;-33
2024/01/27 10:02:11;;;;;;;3.75;2.20;;;;;;;9.75;62.05;102406.28;5050661;28;20647;-35
2024/01/27 10:04:40;;;;;;;4.47;2.80;;;;;;;8.22;72.26;102405.34;5050888;28;20029;-35
2024/01/27 10:07:06;;;;;;;2.83;2.00;;;;;;;8.83;70.87;102407.53;5050968;28;20492;-37
2024/01/27 10:09:31;;;;;;;4.38;2.10;;;;;;;9.05;67.64;102398.63;5054720;28;20076;-33
2024/01/27 10:11:58;;;;;;;3.42;2.40;;;;;;;9.54;62.65;102392.97;5054771;28;20033;-36
2024/01/27 10:14:23;;;;;;;3.90;2.35;;;;;;;8.51;65.98;102386.03;5054808;28;20041;-33
2024/01/27 10:16:48;;;;;;;2.45;1.98;;;;;;;9.15;67.96;102388.44;5055923;28;20045;-36
2024/01/27 10:19:18;;;;;;;3.65;2.28;;;;;;;8.68;66.15;102386.81;5054209;28;20043;-35
2024/01/27 10:21:45;;;;;;;3.05;2.50;;;;;;;10.10;64.53;102386.19;5055529;28;20033;-33
2024/01/27 10:24:10;;;;;;;4.28;2.47;;;;;;;9.93;66.89;102379.94;5050997;28;20053;-34
2024/01/27 10:26:35;;;;;;;4.35;2.67;;;;;;;9.32;70.48;102379.63;5053804;28;20075;-34
2024/01/27 10:29:01;;;;;;;4.90;2.17;;;;;;;9.46;66.67;102378.44;5052387;28;20075;-36
2024/01/27 10:31:28;;;;;;;3.97;2.35;;;;;;;10.56;63.74;102384.78;5054278;28;20511;-35
2024/01/27 10:33:56;;;;;;;2.90;2.17;;;;;;;9.91;64.36;102387.94;5055393;28;20044;-34
2024/01/27 10:36:21;;;;;;;;;;;;;;;10.79;62.23;102391.25;5058166;28;20047;-34
2024/01/27 10:38:46;;;;;;;3.63;2.58;;;;;;;11.08;58.77;102388.28;5053582;28;19912;-37
2024/01/27 10:41:23;;;;;;;4.32;2.53;;;;;;;10.15;63.43;102388.44;5054179;28;20117;-34
2024/01/27 10:43:51;;;;;;;4.60;2.35;;;;;;;11.95;60.87;102384.00;5061915;28;20044;-34
2024/01/27 10:46:19;;;;;;;4.30;2.38;;;;;;;10.41;60.53;102381.66;5051156;28;20012;-36
2024/01/27 10:48:50;;;;;;;4.65;2.20;;;;;;;11.94;58.24;102377.63;5053510;28;20053;-34
2024/01/27 10:51:18;;;;;;;4.25;1.98;;;;;;;11.42;56.92;102374.28;5054002;28;20546;-34
2024/01/27 10:53:48;;;;;;;2.85;2.10;;;;;;;12.44;55.00;102367.25;5054158;28;20169;-42
2024/01/27 10:56:14;;;;;;;5.45;2.72;;;;;;;10.92;57.92;102369.66;5054099;28;20463;-39
2024/01/27 10:58:41;;;;;;;2.78;2.30;;;;;;;10.51;59.11;102374.19;5056588;28;20041;-43
2024/01/27 11:01:14;;;;;;;3.88;2.40;;;;;;;12.17;58.04;102378.38;5053740;28;20045;-36
2024/01/27 11:03:40;;;;;;;3.70;2.38;;;;;;;11.22;57.88;102378.63;5052539;28;20082;-36
2024/01/27 11:06:06;;;;;;;5.57;2.55;;;;;;;11.00;58.48;102365.38;5046765;28;20380;-34
2024/01/27 11:08:33;;;;;;;4.70;2.30;;;;;;;10.54;60.42;102367.72;5044553;28;20505;-36
2024/01/27 11:11:00;;;;;;;4.35;2.30;;;;;;;12.47;57.47;102371.94;5047609;28;20170;-33
2024/01/27 11:13:27;;;;;;;4.60;2.20;;;;;;;10.50;63.37;102375.44;5045011;28;20049;-35
2024/01/27 11:15:54;;;;;;;4.97;2.25;;;;;;;10.67;59.43;102365.69;5046529;28;20037;-33
2024/01/27 11:18:19;;;;;;;2.42;2.00;;;;;;;10.64;60.14;102369.38;5044578;28;20041;-38
2024/01/27 11:20:45;;;;;;;2.28;1.80;;;;;;;11.03;59.01;102374.88;5047233;28;20417;-37
2024/01/27 11:23:13;;;;;;;3.25;1.65;;;;;;;10.28;61.88;102369.72;5045986;28;20432;-34
2024/01/27 11:25:39;;;;;;;3.78;2.15;;;;;;;10.43;61.86;102370.03;5046540;28;20026;-33
2024/01/27 11:28:16;;;;;;;4.28;2.08;;;;;;;10.95;58.97;102352.78;5046601;28;20124;-33
2024/01/27 11:30:49;;;;;;;3.92;2.15;;;;;;;11.13;56.41;102351.38;5046834;28;20563;-35
2024/01/27 11:33:14;;;;;;;4.72;2.42;;;;;;;11.38;60.00;102356.09;5045359;28;20044;-36
2024/01/27 11:35:40;;;;;;;3.33;1.80;;;;;;;11.05;58.71;102342.47;5046578;28;20053;-34
2024/01/27 11:38:05;;;;;;;2.90;1.80;;;;;;;10.23;60.61;102337.56;5046192;28;20086;-40
2024/01/27 11:40:32;;;;;;;4.00;1.90;;;;;;;10.82;59.03;102331.69;5044936;28;20033;-38
2024/01/27 11:42:59;;;;;;;4.10;1.80;;;;;;;11.50;62.09;102330.09;5047221;28;20032;-34
2024/01/27 11:45:24;;;;;;;2.92;1.95;;;;;;;10.31;58.23;102321.41;5044218;28;20575;-34
2024/01/27 11:47:50;;;;;;;5.95;2.20;;;;;;;9.73;62.59;102324.38;5046674;28;20029;-38
2024/01/27 11:50:20;;;;;;;4.10;1.92;;;;;;;10.03;63.28;102317.47;5044292;28;20041;-36
2024/01/27 11:52:46;;;;;;;4.72;2.05;;;;;;;9.28;64.68;102322.47;5046249;28;20512;-34
2024/01/27 11:55:12;;;;;;;4.03;1.90;;;;;;;9.96;63.11;102323.28;5046896;28;20037;-38
2024/01/27 11:57:37;;;;;;;3.60;2.45;;;;;;;9.85;61.76;102322.81;5051154;28;20039;-34
2024/01/27 12:00:04;;;;;;;4.15;2.33;;;;;;;10.20;60.82;102312.56;5052522;28;20041;-35
2024/01/27 12:02:32;;;;;;;2.42;1.70;;;;;;;10.56;61.17;102303.88;5052463;28;20061;-34
2024/01/27 12:04:57;;;;;;;3.25;1.90;;;;;;;10.53;62.57;102296.41;5052458;28;20068;-33
2024/01/27 12:07:23;;;;;;;2.50;1.95;;;;;;;10.54;61.58;102300.72;5052343;28;20045;-39
2024/01/27 12:09:50;;;;;;;5.25;2.60;;;;;;;10.19;63.33;102303.41;5052560;28;20041;-41
2024/01/27 12:12:16;;;;;;;2.03;1.55;;;;;;;8.75;65.20;102302.38;5052334;28;20477;-34
2024/01/27 12:14:45;;;;;;;3.70;2.00;;;;;;;9.89;63.44;102301.19;5051957;28;20043;-33
2024/01/27 12:17:11;;;;;;;5.45;1.83;;;;;;;8.95;64.30;102311.38;5043503;28;20044;-36
2024/01/27 12:19:49;;;;;;;4.10;1.80;;;;;;;9.37;64.01;102307.88;5043974;28;20029;-37
2024/01/27 12:22:27;;;;;;;4.15;2.10;;;;;;;10.09;65.98;102310.13;5050588;28;20072;-37
2024/01/27 12:25:10;;;;;;;5.30;1.80;;;;;;;10.69;62.03;102289.88;5050938;28;20044;-33
2024/01/27 12:27:35;;;;;;;4.72;1.90;;;;;;;10.24;61.01;102277.78;5052100;28;20389;-33
2024/01/27 12:30:02;;;;;;;3.05;1.73;;;;;;;10.36;61.71;102292.94;5051553;28;20025;-35
2024/01/27 12:32:27;;;;;;;3.13;1.70;;;;;;;9.08;64.49;102287.19;5051555;28;20044;-35
2024/01/27 12:34:53;;;;;;;6.97;2.47;;;;;;;10.12;63.08;102297.28;5052103;28;20033;-35
2024/01/27 12:37:21;;;;;;;4.47;2.10;;;;;;;9.96;61.31;102295.41;5051765;28;20041;-36
2024/01/27 12:39:50;;;;;;;3.28;1.95;;;;;;;9.78;62.82;102288.34;5051684;28;20036;-37
2024/01/27 12:42:16;;;;;;;3.50;1.70;;;;;;;9.22;63.73;102294.38;5051915;28;20036;-36
2024/01/27 12:44:42;;;;;;;2.83;1.50;;;;;;;9.08;63.83;102286.41;5051828;28;20408;-40
2024/01/27 12:47:07;;;;;;;4.90;1.98;;;;;;;9.72;63.59;102290.13;5051586;28;20036;-35
2024/01/27 12:49:34;;;;;;;4.82;1.80;;;;;;;10.23;59.96;102278.97;5051600;28;20052;-35
2024/01/27 12:52:00;;;;;;;3.58;1.80;;;;;;;9.62;62.00;102288.44;5051739;28;20488;-33
2024/01/27 12:54:25;;;;;;;4.90;1.80;;;;;;;10.09;60.98;102279.44;5050290;28;20059;-34
2024/01/27 12:56:50;;;;;;;2.88;1.65;;;;;;;9.20;64.22;102270.97;5047176;28;20062;-33
2024/01/27 12:59:16;;;;;;;2.47;1.70;;;;;;;9.39;63.24;102272.78;5043116;28;20032;-33
2024/01/27 13:01:41;;;;;;;2.83;1.77;;;;;;;9.41;61.99;102267.56;5047241;28;20411;-35
2024/01/27 13:04:07;;;;;;;4.70;2.15;;;;;;;9.40;60.53;102266.00;5051269;28;20116;-38
2024/01/27 13:06:32;;;;;;;1.83;1.48;;;;;;;9.66;61.64;102260.47;5051395;28;20037;-33
2024/01/27 13:08:58;;;;;;;2.22;1.80;;;;;;;9.49;62.00;102265.34;5051163;28;20099;-33
2024/01/27 13:11:24;;;;;;;4.07;2.15;;;;;;;9.09;63.95;102265.69;5051392;28;20033;-36
2024/01/27 13:13:49;;;;;;;2.53;1.55;;;;;;;9.42;62.82;102257.97;5051323;28;20090;-36
2024/01/27 13:16:15;;;;;;;2.75;1.55;;;;;;;9.23;62.57;102251.38;5051190;28;20029;-36
2024/01/27 13:18:40;;;;;;;2.50;1.45;;;;;;;8.80;62.45;102255.34;5051136;28;20049;-33
2024/01/27 13:21:06;;;;;;;3.00;1.75;;;;;;;8.95;65.09;102250.16;5051260;28;20068;-33
2024/01/27 13:23:32;;;;;;;3.25;1.50;;;;;;;9.52;62.03;102244.97;5051308;28;20040;-36
2024/01/27 13:25:58;;;;;;;5.28;2.55;;;;;;;9.07;63.51;102237.50;5051352;28;20036;-35
2024/01/27 13:28:23;;;;;;;3.22;1.55;;;;;;;9.02;62.14;102227.72;5051064;28;20041;-36
2024/01/27 13:30:49;;;;;;;5.28;2.28;;;;;;;8.95;61.91;102224.31;5050954;28;20064;-33
2024/01/27 13:33:15;;;;;;;3.25;1.48;;;;;;;9.19;60.93;102228.41;5051422;28;20033;-35
2024/01/27 13:35:46;;;;;;;4.07;1.80;;;;;;;8.94;63.23;102231.13;5051103;28;20041;-33
2024/01/27 13:38:12;;;;;;;2.25;1.70;;;;;;;8.70;62.55;102231.38;5051004;28;20029;-49
2024/01/27 13:40:37;;;;;;;1.98;1.52;;;;;;;8.63;63.96;102229.56;5050973;28;20055;-38
2024/01/27 13:43:03;;;;;;;6.40;1.88;;;;;;;9.16;64.65;102236.88;5052860;28;20040;-33
2024/01/27 13:45:29;;;;;;;4.03;2.00;;;;;;;8.97;63.88;102230.25;5055056;28;20039;-42
2024/01/27 13:47:55;;;;;;;2.92;1.33;;;;;;;9.22;63.97;102233.09;5054958;28;20070;-38
2024/01/27 13:50:20;;;;;;;4.18;2.03;;;;;;;8.78;63.02;102223.59;5054687;28;20068;-39
2024/01/27 13:52:47;;;;;;;4.40;2.22;;;;;;;8.84;61.24;102224.63;5054847;28;20141;-39
2024/01/27 13:55:13;;;;;;;2.78;1.15;;;;;;;8.47;61.71;102229.56;5055376;28;20032;-39
2024/01/27 13:57:40;;;;;;;4.82;1.65;;;;;;;8.80;61.04;102226.72;5054514;28;20047;-39
2024/01/27 14:00:06;;;;;;;5.70;1.88;;;;;;;8.62;61.45;102218.84;5054709;28;20109;-38
2024/01/27 14:02:32;;;;;;;4.78;1.55;;;;;;;8.55;61.59;102221.84;5054860;28;20052;-36
2024/01/27 14:04:58;;;;;;;4.85;1.55;;;;;;;8.34;62.39;102226.69;5054754;28;20032;-37
2024/01/27 14:07:23;;;;;;;2.65;1.55;;;;;;;8.60;62.12;102222.09;5054376;28;20041;-38
2024/01/27 14:09:49;;;;;;;3.00;1.35;;;;;;;8.32;62.30;102225.56;5054556;28;20064;-38
2024/01/27 14:12:15;;;;;;;6.75;1.50;;;;;;;8.50;62.68;102228.69;5054535;28;20064;-40
2024/01/27 14:14:41;;;;;;;4.35;1.42;;;;;;;8.60;62.46;102224.88;5053138;28;20060;-40
2024/01/27 14:17:08;;;;;;;3.53;1.42;;;;;;;8.27;63.73;102215.75;5054290;28;20480;-40
2024/01/27 14:19:33;;;;;;;2.58;1.50;;;;;;;8.35;63.68;102217.13;5052964;28;20041;-39
2024/01/27 14:21:59;;;;;;;2.03;1.33;;;;;;;8.29;64.62;102220.88;5054346;28;20032;-37
2024/01/27 14:24:25;;;;;;;2.58;1.63;;;;;;;8.26;65.61;102219.75;5054306;28;20493;-37
2024/01/27 14:26:51;;;;;;;3.40;1.92;;;;;;;8.34;66.89;102212.78;5054041;28;20120;-35
2024/01/27 14:29:16;;;;;;;4.90;1.60;;;;;;;8.31;67.15;102205.31;5054110;28;20136;-39
2024/01/27 14:31:42;;;;;;;2.28;1.90;;;;;;;8.34;68.73;102210.00;5054163;28;20472;-39
2024/01/27 14:34:09;;;;;;;3.35;1.50;;;;;;;8.24;66.42;102204.72;5054142;28;20520;-40
2024/01/27 14:36:35;;;;;;;4.60;1.67;;;;;;;8.37;65.55;102197.22;5051510;28;20049;-37
2024/01/27 14:39:01;;;;;;;4.50;1.67;;;;;;;8.32;65.88;102194.97;5046899;28;20029;-38
2024/01/27 14:41:27;;;;;;;3.60;1.65;;;;;;;8.17;67.09;102194.56;5046463;28;20033;-36
2024/01/27 14:43:52;;;;;;;3.63;1.67;;;;;;;8.33;65.68;102188.19;5046149;28;20139;-33
2024/01/27 14:46:18;;;;;;;3.40;1.80;;;;;;;8.39;64.47;102189.25;5045339;28;20513;-36
2024/01/27 14:48:45;;;;;;;2.75;1.58;;;;;;;8.17;65.85;102189.00;5047871;28;20048;-34
2024/01/27 14:51:11;;;;;;;3.30;2.15;;;;;;;8.19;65.07;102186.56;5045499;28;20485;-35
2024/01/27 14:53:36;;;;;;;2.08;1.40;;;;;;;8.11;64.85;102185.94;5048047;28;20055;-40
2024/01/27 14:56:02;;;;;;;3.92;1.80;;;;;;;8.06;64.83;102182.94;5053567;28;20472;-34
2024/01/27 14:58:27;;;;;;;6.80;2.55;;;;;;;8.14;64.79;102179.53;5053343;28;20037;-35
2024/01/27 15:00:53;;;;;;;3.83;1.70;;;;;;;7.98;64.84;102173.97;5045511;28;20450;-37
2024/01/27 15:03:25;;;;;;;6.85;3.30;;;;;;;8.05;65.60;102175.78;5053706;28;20036;-34
2024/01/27 15:05:51;;;;;;;9.70;3.17;;;;;;;7.85;65.14;102178.66;5053620;28;20039;-34
2024/01/27 15:08:17;;;;;;;5.38;2.67;;;;;;;7.94;65.58;102176.06;5050367;28;20108;-35
2024/01/27 15:10:44;;;;;;;3.40;1.83;;;;;;;7.94;64.74;102173.28;5053245;28;20048;-41
2024/01/27 15:13:12;;;;;;;5.32;1.80;;;;;;;7.77;65.19;102171.69;5053505;28;20036;-38
2024/01/27 15:15:40;;;;;;;2.25;1.60;;;;;;;7.66;66.25;102178.28;5052116;28;20041;-38
2024/01/27 15:18:07;;;;;;;2.45;1.50;;;;;;;7.62;65.61;102185.94;5053174;28;20040;-35
2024/01/27 15:20:32;;;;;;;4.15;1.65;;;;;;;7.62;65.11;102187.94;5053124;28;20049;-36
2024/01/27 15:22:58;;;;;;;4.90;1.60;;;;;;;7.55;65.72;102179.78;5053266;28;20111;-34
2024/01/27 15:25:24;;;;;;;3.28;1.90;;;;;;;7.49;65.36;102178.72;5053124;28;20095;-34
2024/01/27 15:27:50;;;;;;;4.03;2.25;;;;;;;7.41;65.57;102175.31;5052823;28;20013;-39
2024/01/27 15:30:16;;;;;;;2.65;1.40;;;;;;;7.41;65.25;102175.31;5053150;28;20091;-35
2024/01/27 15:32:42;;;;;;;8.05;2.40;;;;;;;7.28;65.64;102186.28;5052880;28;20515;-35
2024/01/27 15:35:08;;;;;;;5.20;2.50;;;;;;;7.14;66.66;102186.59;5052747;28;20033;-38
2024/01/27 15:37:34;;;;;;;5.05;2.03;;;;;;;7.09;67.73;102187.88;5052322;28;20025;-36
2024/01/27 15:39:59;;;;;;;3.85;2.13;;;;;;;7.11;65.97;102184.69;5052289;28;20029;-37
2024/01/27 15:42:24;;;;;;;3.05;1.98;;;;;;;7.02;66.60;102193.56;5053011;28;20500;-35
2024/01/27 15:44:50;;;;;;;2.65;1.70;;;;;;;6.94;67.59;102192.16;5052271;28;20123;-36
2024/01/27 15:47:15;;;;;;;4.28;1.95;;;;;;;6.90;69.46;102197.78;5047619;28;20047;-34
2024/01/27 15:49:41;;;;;;;6.28;1.90;;;;;;;6.83;69.49;102189.59;5050348;28;20037;-37
2024/01/27 15:52:07;;;;;;;2.60;1.80;;;;;;;6.68;70.52;102196.63;5045298;28;20037;-38
2024/01/27 15:54:33;;;;;;;2.72;1.98;;;;;;;6.63;71.20;102194.34;5043940;28;20048;-34
2024/01/27 15:56:58;;;;;;;3.67;2.03;;;;;;;6.46;73.52;102194.25;5042537;28;20111;-36
2024/01/27 15:59:23;;;;;;;5.88;1.90;;;;;;;6.43;74.65;102195.09;5041339;28;20505;-37
2024/01/27 16:01:49;;;;;;;3.88;2.15;;;;;;;6.17;77.53;102193.97;5046175;28;20036;-36
2024/01/27 16:04:14;;;;;;;2.53;1.77;;;;;;;6.18;78.62;102191.97;5043550;28;20037;-37
2024/01/27 16:06:40;;;;;;;6.18;1.63;;;;;;;6.02;81.03;102204.47;5044501;28;20040;-37
2024/01/27 16:09:05;;;;;;;4.13;1.80;;;;;;;5.95;82.29;102203.81;5044794;28;20105;-35
2024/01/27 16:11:30;;;;;;;5.32;1.90;;;;;;;5.83;85.31;102205.94;5045196;28;20044;-34
2024/01/27 16:13:56;;;;;;;3.42;1.90;;;;;;;5.85;85.30;102213.84;5046238;28;20562;-35
2024/01/27 16:16:24;;;;;;;7.20;2.28;;;;;;;5.76;86.81;102211.59;5043248;28;20041;-36
2024/01/27 16:18:50;;;;;;;4.80;2.72;;;;;;;5.59;89.96;102207.09;5046425;28;20045;-35
2024/01/27 16:21:16;;;;;;;5.57;2.17;;;;;;;5.56;91.52;102211.47;5025494;28;20041;-36
2024/01/27 16:23:41;;;;;;;4.88;2.20;;;;;;;5.56;91.66;102211.47;5046076;28;20036;-35
2024/01/27 16:26:07;;;;;;;4.47;2.60;;;;;;;5.49;93.14;102219.88;5044447;28;20033;-35
2024/01/27 16:28:33;;;;;;;5.90;2.40;;;;;;;5.39;94.12;102220.78;5043566;28;20091;-36
2024/01/27 16:30:59;;;;;;;3.38;2.22;;;;;;;5.32;94.05;102221.66;5044157;28;20086;-39
2024/01/27 16:33:25;;;;;;;4.75;2.40;;;;;;;5.37;94.61;102214.91;5043923;28;20041;-36
2024/01/27 16:35:50;;;;;;;5.07;2.15;;;;;;;5.23;95.24;102224.19;5045922;28;20060;-38
2024/01/27 16:38:15;;;;;;;4.63;2.60;;;;;;;5.27;95.16;102232.44;5042792;28;20069;-34
2024/01/27 16:40:42;;;;;;;5.25;2.80;;;;;;;5.10;96.79;102223.13;5045762;28;20504;-37
2024/01/27 16:43:07;;;;;;;6.70;2.60;;;;;;;5.04;96.82;102217.28;5044295;28;20519;-35
2024/01/27 16:45:33;;;;;;;4.88;2.60;;;;;;;4.97;97.73;102224.88;5044883;28;20042;-36